sensor_id;sensor_type;location;lat;lon;timestamp;pressure;altitude;pressure_sealevel;temperature;humidity
51249;BME280;39642;47.556;18.728;2023-06-19T00:00:20;99562.78;;;22.59;48.39
51249;BME280;39642;47.556;18.728;2023-06-19T00:02:46;99559.25;;;22.58;48.39
51249;BME280;39642;47.556;18.728;2023-06-19T00:05:12;99558.31;;;22.59;48.39
51249;BME280;39642;47.556;18.728;2023-06-19T00:07:38;99560.13;;;22.59;48.38
51249;BME280;39642;47.556;18.728;2023-06-19T00:10:05;99560.97;;;22.59;48.38
51249;BME280;39642;47.556;18.728;2023-06-19T00:12:32;99561.06;;;22.58;48.36
51249;BME280;39642;47.556;18.728;2023-06-19T00:14:58;99557.47;;;22.59;48.34
51249;BME280;39642;47.556;18.728;2023-06-19T00:17:24;99561.06;;;22.58;48.34
51249;BME280;39642;47.556;18.728;2023-06-19T00:19:52;99567.22;;;22.58;48.33
51249;BME280;39642;47.556;18.728;2023-06-19T00:22:18;99567.22;;;22.58;48.33
51249;BME280;39642;47.556;18.728;2023-06-19T00:24:44;99562.78;;;22.59;48.34
51249;BME280;39642;47.556;18.728;2023-06-19T00:27:11;99564.69;;;22.57;48.33
51249;BME280;39642;47.556;18.728;2023-06-19T00:29:37;99562.03;;;22.57;48.34
51249;BME280;39642;47.556;18.728;2023-06-19T00:32:03;99564.69;;;22.57;48.34
51249;BME280;39642;47.556;18.728;2023-06-19T00:34:29;99566.37;;;22.58;48.34
51249;BME280;39642;47.556;18.728;2023-06-19T00:36:58;99558.53;;;22.56;48.34
51249;BME280;39642;47.556;18.728;2023-06-19T00:39:24;99563.84;;;22.56;48.35
51249;BME280;39642;47.556;18.728;2023-06-19T00:41:55;99555.91;;;22.56;48.34
51249;BME280;39642;47.556;18.728;2023-06-19T00:44:21;99567.34;;;22.57;48.34
51249;BME280;39642;47.556;18.728;2023-06-19T00:46:51;99562.03;;;22.57;48.32
51249;BME280;39642;47.556;18.728;2023-06-19T00:49:17;99558.53;;;22.56;48.33
51249;BME280;39642;47.556;18.728;2023-06-19T00:51:43;99552.37;;;22.56;48.31
51249;BME280;39642;47.556;18.728;2023-06-19T00:54:09;99557.69;;;22.56;48.30
51249;BME280;39642;47.556;18.728;2023-06-19T00:56:37;99556.84;;;22.55;48.31
51249;BME280;39642;47.556;18.728;2023-06-19T00:59:06;99557.69;;;22.56;48.31
51249;BME280;39642;47.556;18.728;2023-06-19T01:01:33;99548.03;;;22.55;48.31
51249;BME280;39642;47.556;18.728;2023-06-19T01:03:59;99551.53;;;22.55;48.33
51249;BME280;39642;47.556;18.728;2023-06-19T01:06:32;99548.03;;;22.55;48.34
51249;BME280;39642;47.556;18.728;2023-06-19T01:09:11;99543.66;;;22.54;48.32
51249;BME280;39642;47.556;18.728;2023-06-19T01:11:47;99544.53;;;22.54;48.34
51249;BME280;39642;47.556;18.728;2023-06-19T01:14:18;99547.19;;;22.54;48.34
51249;BME280;39642;47.556;18.728;2023-06-19T01:16:45;99544.53;;;22.54;48.33
51249;BME280;39642;47.556;18.728;2023-06-19T01:19:17;99531.28;;;22.54;48.34
51249;BME280;39642;47.556;18.728;2023-06-19T01:21:45;99533.94;;;22.54;48.33
51249;BME280;39642;47.556;18.728;2023-06-19T01:24:11;99533.06;;;22.54;48.33
51249;BME280;39642;47.556;18.728;2023-06-19T01:26:37;99538.34;;;22.54;48.32
51249;BME280;39642;47.556;18.728;2023-06-19T01:29:03;99537.53;;;22.53;48.32
51249;BME280;39642;47.556;18.728;2023-06-19T01:31:35;99537.53;;;22.53;48.31
51249;BME280;39642;47.556;18.728;2023-06-19T01:34:04;99526.06;;;22.53;48.31
51249;BME280;39642;47.556;18.728;2023-06-19T01:36:32;99527.75;;;22.54;48.31
51249;BME280;39642;47.556;18.728;2023-06-19T01:38:59;99524.25;;;22.53;48.31
51249;BME280;39642;47.556;18.728;2023-06-19T01:41:25;99529.56;;;22.53;48.32
51249;BME280;39642;47.556;18.728;2023-06-19T01:43:52;99524.25;;;22.53;48.32
51249;BME280;39642;47.556;18.728;2023-06-19T01:46:18;99519.06;;;22.52;48.31
51249;BME280;39642;47.556;18.728;2023-06-19T01:48:45;99526.06;;;22.53;48.32
51249;BME280;39642;47.556;18.728;2023-06-19T01:51:10;99522.56;;;22.52;48.33
51249;BME280;39642;47.556;18.728;2023-06-19T01:53:37;99518.09;;;22.53;48.33
51249;BME280;39642;47.556;18.728;2023-06-19T01:56:03;99516.41;;;22.52;48.33
51249;BME280;39642;47.556;18.728;2023-06-19T01:58:29;99514.59;;;22.52;48.35
51249;BME280;39642;47.556;18.728;2023-06-19T02:00:54;99513.78;;;22.52;48.36
51249;BME280;39642;47.556;18.728;2023-06-19T02:03:20;99515.53;;;22.51;48.37
51249;BME280;39642;47.556;18.728;2023-06-19T02:05:47;99517.34;;;22.51;48.38
51249;BME280;39642;47.556;18.728;2023-06-19T02:08:12;99518.19;;;22.51;48.38
51249;BME280;39642;47.556;18.728;2023-06-19T02:10:38;99518.19;;;22.51;48.38
51249;BME280;39642;47.556;18.728;2023-06-19T02:13:04;99521.72;;;22.52;48.39
51249;BME280;39642;47.556;18.728;2023-06-19T02:15:30;99516.41;;;22.52;48.40
51249;BME280;39642;47.556;18.728;2023-06-19T02:17:56;99523.50;;;22.51;48.40
51249;BME280;39642;47.556;18.728;2023-06-19T02:20:23;99525.31;;;22.51;48.40
51249;BME280;39642;47.556;18.728;2023-06-19T02:22:52;99537.66;;;22.52;48.40
51249;BME280;39642;47.556;18.728;2023-06-19T02:25:18;99525.31;;;22.51;48.40
51249;BME280;39642;47.556;18.728;2023-06-19T02:27:45;99522.66;;;22.51;48.40
51249;BME280;39642;47.556;18.728;2023-06-19T02:30:11;99534.13;;;22.51;48.40
51249;BME280;39642;47.556;18.728;2023-06-19T02:32:37;99534.25;;;22.50;48.40
51249;BME280;39642;47.556;18.728;2023-06-19T02:35:06;99546.53;;;22.51;48.41
51249;BME280;39642;47.556;18.728;2023-06-19T02:37:32;99534.25;;;22.50;48.42
51249;BME280;39642;47.556;18.728;2023-06-19T02:39:57;99521.94;;;22.49;48.43
51249;BME280;39642;47.556;18.728;2023-06-19T02:42:23;99535.19;;;22.49;48.45
51249;BME280;39642;47.556;18.728;2023-06-19T02:44:49;99529.03;;;22.48;48.45
51249;BME280;39642;47.556;18.728;2023-06-19T02:47:15;99531.69;;;22.48;48.45
51249;BME280;39642;47.556;18.728;2023-06-19T02:49:41;99531.69;;;22.48;48.45
51249;BME280;39642;47.556;18.728;2023-06-19T02:52:07;99537.00;;;22.48;48.46
51249;BME280;39642;47.556;18.728;2023-06-19T02:54:33;99537.00;;;22.48;48.46
51249;BME280;39642;47.556;18.728;2023-06-19T02:56:59;99541.47;;;22.48;48.47
51249;BME280;39642;47.556;18.728;2023-06-19T02:59:25;99542.31;;;22.48;48.47
51249;BME280;39642;47.556;18.728;2023-06-19T03:01:51;99541.47;;;22.48;48.48
51249;BME280;39642;47.556;18.728;2023-06-19T03:04:17;99544.97;;;22.48;48.48
51249;BME280;39642;47.556;18.728;2023-06-19T03:06:43;99553.03;;;22.47;48.48
51249;BME280;39642;47.556;18.728;2023-06-19T03:09:09;99545.91;;;22.47;48.50
51249;BME280;39642;47.556;18.728;2023-06-19T03:11:41;99553.88;;;22.47;48.49
51249;BME280;39642;47.556;18.728;2023-06-19T03:14:07;99547.72;;;22.47;48.50
51249;BME280;39642;47.556;18.728;2023-06-19T03:16:34;99550.38;;;22.47;48.50
51249;BME280;39642;47.556;18.728;2023-06-19T03:19:00;99547.72;;;22.47;48.50
51249;BME280;39642;47.556;18.728;2023-06-19T03:21:27;99545.06;;;22.47;48.50
51249;BME280;39642;47.556;18.728;2023-06-19T03:23:53;99542.41;;;22.47;48.50
51249;BME280;39642;47.556;18.728;2023-06-19T03:26:20;99544.22;;;22.46;48.49
51249;BME280;39642;47.556;18.728;2023-06-19T03:28:46;99540.72;;;22.45;48.50
51249;BME280;39642;47.556;18.728;2023-06-19T03:31:15;99545.06;;;22.47;48.49
51249;BME280;39642;47.556;18.728;2023-06-19T03:33:41;99542.53;;;22.45;48.50
51249;BME280;39642;47.556;18.728;2023-06-19T03:36:07;99543.37;;;22.45;48.50
51249;BME280;39642;47.556;18.728;2023-06-19T03:38:33;99551.34;;;22.45;48.50
51249;BME280;39642;47.556;18.728;2023-06-19T03:40:59;99551.34;;;22.45;48.50
51249;BME280;39642;47.556;18.728;2023-06-19T03:43:25;99543.37;;;22.45;48.50
51249;BME280;39642;47.556;18.728;2023-06-19T03:45:50;99546.97;;;22.44;48.51
51249;BME280;39642;47.556;18.728;2023-06-19T03:48:17;99551.34;;;22.45;48.50
51249;BME280;39642;47.556;18.728;2023-06-19T03:50:43;99552.19;;;22.46;48.50
51249;BME280;39642;47.556;18.728;2023-06-19T03:53:09;99553.16;;;22.45;48.50
51249;BME280;39642;47.556;18.728;2023-06-19T03:55:35;99554.00;;;22.45;48.50
51249;BME280;39642;47.556;18.728;2023-06-19T03:58:01;99549.63;;;22.44;48.50
51249;BME280;39642;47.556;18.728;2023-06-19T04:00:27;99548.78;;;22.44;48.51
51249;BME280;39642;47.556;18.728;2023-06-19T04:02:53;99554.94;;;22.44;48.51
51249;BME280;39642;47.556;18.728;2023-06-19T04:05:19;99549.63;;;22.44;48.50
51249;BME280;39642;47.556;18.728;2023-06-19T04:07:48;99552.28;;;22.44;48.50
51249;BME280;39642;47.556;18.728;2023-06-19T04:10:14;99550.50;;;22.45;48.49
51249;BME280;39642;47.556;18.728;2023-06-19T04:12:40;99555.81;;;22.45;48.50
51249;BME280;39642;47.556;18.728;2023-06-19T04:15:07;99548.78;;;22.44;48.50
51249;BME280;39642;47.556;18.728;2023-06-19T04:17:33;99547.84;;;22.45;48.51
51249;BME280;39642;47.556;18.728;2023-06-19T04:19:59;99555.81;;;22.45;48.50
51249;BME280;39642;47.556;18.728;2023-06-19T04:22:25;99552.28;;;22.44;48.51
51249;BME280;39642;47.556;18.728;2023-06-19T04:24:51;99549.63;;;22.44;48.52
51249;BME280;39642;47.556;18.728;2023-06-19T04:27:16;99549.63;;;22.44;48.53
51249;BME280;39642;47.556;18.728;2023-06-19T04:29:43;99546.97;;;22.44;48.54
51249;BME280;39642;47.556;18.728;2023-06-19T04:32:09;99550.50;;;22.45;48.56
51249;BME280;39642;47.556;18.728;2023-06-19T04:34:39;99545.19;;;22.45;48.58
51249;BME280;39642;47.556;18.728;2023-06-19T04:37:05;99542.53;;;22.45;48.60
51249;BME280;39642;47.556;18.728;2023-06-19T04:39:31;99548.69;;;22.45;48.63
51249;BME280;39642;47.556;18.728;2023-06-19T04:41:57;99546.03;;;22.45;48.64
51249;BME280;39642;47.556;18.728;2023-06-19T04:44:22;99549.53;;;22.46;48.66
51249;BME280;39642;47.556;18.728;2023-06-19T04:46:48;99554.00;;;22.45;48.70
51249;BME280;39642;47.556;18.728;2023-06-19T04:49:14;99549.53;;;22.46;48.72
51249;BME280;39642;47.556;18.728;2023-06-19T04:51:40;99546.88;;;22.46;48.78
51249;BME280;39642;47.556;18.728;2023-06-19T04:54:07;99546.88;;;22.46;48.81
51249;BME280;39642;47.556;18.728;2023-06-19T04:56:32;99546.88;;;22.46;48.86
51249;BME280;39642;47.556;18.728;2023-06-19T04:58:58;99558.31;;;22.47;48.88
51249;BME280;39642;47.556;18.728;2023-06-19T05:01:26;99560.03;;;22.48;48.91
51249;BME280;39642;47.556;18.728;2023-06-19T05:03:56;99560.88;;;22.48;48.94
51249;BME280;39642;47.556;18.728;2023-06-19T05:06:25;99563.53;;;22.48;48.98
51249;BME280;39642;47.556;18.728;2023-06-19T05:08:51;99561.72;;;22.49;49.02
51249;BME280;39642;47.556;18.728;2023-06-19T05:11:18;99559.91;;;22.49;49.05
51249;BME280;39642;47.556;18.728;2023-06-19T05:13:44;99562.56;;;22.49;49.11
51249;BME280;39642;47.556;18.728;2023-06-19T05:16:10;99552.81;;;22.50;49.13
51249;BME280;39642;47.556;18.728;2023-06-19T05:18:36;99568.75;;;22.50;49.16
51249;BME280;39642;47.556;18.728;2023-06-19T05:21:02;99571.41;;;22.50;49.20
51249;BME280;39642;47.556;18.728;2023-06-19T05:23:27;99573.91;;;22.51;49.21
51249;BME280;39642;47.556;18.728;2023-06-19T05:25:53;99569.50;;;22.52;49.21
51249;BME280;39642;47.556;18.728;2023-06-19T05:28:19;99574.66;;;22.53;49.20
51249;BME280;39642;47.556;18.728;2023-06-19T05:30:45;99575.50;;;22.54;49.23
51249;BME280;39642;47.556;18.728;2023-06-19T05:33:11;99578.16;;;22.54;49.21
51249;BME280;39642;47.556;18.728;2023-06-19T05:35:42;99579.88;;;22.55;49.24
51249;BME280;39642;47.556;18.728;2023-06-19T05:38:09;99582.53;;;22.55;49.24
51249;BME280;39642;47.556;18.728;2023-06-19T05:40:35;99579.88;;;22.55;49.12
51249;BME280;39642;47.556;18.728;2023-06-19T05:43:01;99583.38;;;22.55;48.86
51249;BME280;39642;47.556;18.728;2023-06-19T05:45:27;99587.59;;;22.58;48.76
51249;BME280;39642;47.556;18.728;2023-06-19T05:47:53;99596.31;;;22.60;48.67
51249;BME280;39642;47.556;18.728;2023-06-19T05:50:19;99588.03;;;22.64;48.53
51249;BME280;39642;47.556;18.728;2023-06-19T05:52:45;99592.16;;;22.69;48.44
51249;BME280;39642;47.556;18.728;2023-06-19T05:55:11;99586.75;;;22.70;48.38
51249;BME280;39642;47.556;18.728;2023-06-19T05:57:37;99591.84;;;22.73;48.36
51249;BME280;39642;47.556;18.728;2023-06-19T06:00:04;99588.25;;;22.74;48.33
51249;BME280;39642;47.556;18.728;2023-06-19T06:02:31;99594.50;;;22.73;48.44
51249;BME280;39642;47.556;18.728;2023-06-19T06:04:57;99593.56;;;22.74;48.60
51249;BME280;39642;47.556;18.728;2023-06-19T06:07:23;99595.47;;;22.72;48.73
51249;BME280;39642;47.556;18.728;2023-06-19T06:09:49;99597.37;;;22.70;48.83
51249;BME280;39642;47.556;18.728;2023-06-19T06:12:14;99591.19;;;22.70;48.84
51249;BME280;39642;47.556;18.728;2023-06-19T06:14:41;99600.22;;;22.67;48.97
51249;BME280;39642;47.556;18.728;2023-06-19T06:17:07;99601.19;;;22.66;49.10
51249;BME280;39642;47.556;18.728;2023-06-19T06:19:33;99605.66;;;22.65;49.08
51249;BME280;39642;47.556;18.728;2023-06-19T06:21:59;99607.34;;;22.66;49.27
51249;BME280;39642;47.556;18.728;2023-06-19T06:24:24;99608.19;;;22.67;49.40
51249;BME280;39642;47.556;18.728;2023-06-19T06:26:50;99611.72;;;22.68;49.40
51249;BME280;39642;47.556;18.728;2023-06-19T06:29:17;99614.38;;;22.68;49.20
51249;BME280;39642;47.556;18.728;2023-06-19T06:31:46;99612.56;;;22.68;48.95
51249;BME280;39642;47.556;18.728;2023-06-19T06:34:17;99615.94;;;22.70;49.52
51249;BME280;39642;47.556;18.728;2023-06-19T06:36:44;99615.81;;;22.72;49.08
51249;BME280;39642;47.556;18.728;2023-06-19T06:39:10;99610.66;;;22.70;49.00
51249;BME280;39642;47.556;18.728;2023-06-19T06:41:36;99617.53;;;22.73;48.84
51249;BME280;39642;47.556;18.728;2023-06-19T06:44:02;99614.78;;;22.74;49.45
51249;BME280;39642;47.556;18.728;2023-06-19T06:46:29;99619.13;;;22.75;49.01
51249;BME280;39642;47.556;18.728;2023-06-19T06:48:55;99617.31;;;22.76;48.87
51249;BME280;39642;47.556;18.728;2023-06-19T06:51:21;99613.72;;;22.77;49.11
51249;BME280;39642;47.556;18.728;2023-06-19T06:53:48;99612.53;;;22.81;50.00
51249;BME280;39642;47.556;18.728;2023-06-19T06:56:14;99618.88;;;22.91;50.89
51249;BME280;39642;47.556;18.728;2023-06-19T06:58:39;99620.78;;;22.89;50.83
51249;BME280;39642;47.556;18.728;2023-06-19T07:01:05;99621.13;;;22.84;50.19
51249;BME280;39642;47.556;18.728;2023-06-19T07:03:31;99617.84;;;22.81;50.06
51249;BME280;39642;47.556;18.728;2023-06-19T07:05:58;99614.13;;;22.83;49.79
51249;BME280;39642;47.556;18.728;2023-06-19T07:08:24;99621.75;;;22.88;49.65
51249;BME280;39642;47.556;18.728;2023-06-19T07:10:49;99618.13;;;22.89;49.58
51249;BME280;39642;47.556;18.728;2023-06-19T07:13:15;99623.34;;;22.91;49.52
51249;BME280;39642;47.556;18.728;2023-06-19T07:15:42;99624.19;;;22.91;49.48
51249;BME280;39642;47.556;18.728;2023-06-19T07:18:08;99628.56;;;22.92;49.43
51249;BME280;39642;47.556;18.728;2023-06-19T07:20:33;99627.34;;;22.96;49.62
51249;BME280;39642;47.556;18.728;2023-06-19T07:22:59;99621.31;;;22.94;49.56
51249;BME280;39642;47.556;18.728;2023-06-19T07:25:25;99628.09;;;22.98;49.40
51249;BME280;39642;47.556;18.728;2023-06-19T07:27:51;99633.34;;;23.00;49.89
51249;BME280;39642;47.556;18.728;2023-06-19T07:30:17;99628.03;;;23.00;49.64
51249;BME280;39642;47.556;18.728;2023-06-19T07:32:43;99625.44;;;22.98;49.84
51249;BME280;39642;47.556;18.728;2023-06-19T07:35:09;99622.19;;;22.95;49.94
51249;BME280;39642;47.556;18.728;2023-06-19T07:37:37;99623.12;;;22.94;50.34
51249;BME280;39642;47.556;18.728;2023-06-19T07:40:03;99625.16;;;23.03;50.45
51249;BME280;39642;47.556;18.728;2023-06-19T07:42:29;99625.16;;;23.03;49.81
51249;BME280;39642;47.556;18.728;2023-06-19T07:44:55;99621.56;;;23.04;49.84
51249;BME280;39642;47.556;18.728;2023-06-19T07:47:21;99615.16;;;23.06;50.00
51249;BME280;39642;47.556;18.728;2023-06-19T07:49:47;99618.34;;;23.12;50.17
51249;BME280;39642;47.556;18.728;2023-06-19T07:52:13;99617.16;;;23.16;50.01
51249;BME280;39642;47.556;18.728;2023-06-19T07:54:53;99617.06;;;23.17;49.77
51249;BME280;39642;47.556;18.728;2023-06-19T07:57:20;99619.25;;;23.23;49.70
51249;BME280;39642;47.556;18.728;2023-06-19T07:59:47;99619.87;;;23.27;49.65
51249;BME280;39642;47.556;18.728;2023-06-19T08:02:14;99621.34;;;23.31;49.69
51249;BME280;39642;47.556;18.728;2023-06-19T08:04:39;99622.53;;;23.27;49.49
51249;BME280;39642;47.556;18.728;2023-06-19T08:07:06;99624.44;;;23.25;49.68
51249;BME280;39642;47.556;18.728;2023-06-19T08:09:32;99623.50;;;23.26;49.65
51249;BME280;39642;47.556;18.728;2023-06-19T08:11:58;99621.16;;;23.21;49.49
51249;BME280;39642;47.556;18.728;2023-06-19T08:14:23;99621.63;;;23.15;49.66
51249;BME280;39642;47.556;18.728;2023-06-19T08:16:49;99616.66;;;23.11;49.65
51249;BME280;39642;47.556;18.728;2023-06-19T08:19:15;99619.41;;;23.09;49.43
51249;BME280;39642;47.556;18.728;2023-06-19T08:21:41;99623.75;;;23.10;49.31
51249;BME280;39642;47.556;18.728;2023-06-19T08:24:07;99613.25;;;23.09;49.66
51249;BME280;39642;47.556;18.728;2023-06-19T08:26:33;99616.75;;;23.09;49.62
51249;BME280;39642;47.556;18.728;2023-06-19T08:28:59;99609.63;;;23.10;49.76
51249;BME280;39642;47.556;18.728;2023-06-19T08:31:24;99608.88;;;23.07;49.61
51249;BME280;39642;47.556;18.728;2023-06-19T08:33:53;99613.34;;;23.07;49.63
51249;BME280;39642;47.556;18.728;2023-06-19T08:36:19;99614.94;;;23.10;49.20
51249;BME280;39642;47.556;18.728;2023-06-19T08:38:45;99615.78;;;23.10;49.53
51249;BME280;39642;47.556;18.728;2023-06-19T08:41:16;99615.91;;;23.09;49.39
51249;BME280;39642;47.556;18.728;2023-06-19T08:43:42;99614.19;;;23.07;49.24
51249;BME280;39642;47.556;18.728;2023-06-19T08:46:14;99617.72;;;23.08;49.48
51249;BME280;39642;47.556;18.728;2023-06-19T08:48:40;99617.72;;;23.08;49.59
51249;BME280;39642;47.556;18.728;2023-06-19T08:51:07;99621.22;;;23.09;49.51
51249;BME280;39642;47.556;18.728;2023-06-19T08:53:43;99616.91;;;23.19;48.97
51249;BME280;39642;47.556;18.728;2023-06-19T08:56:09;99616.88;;;23.32;48.26
51249;BME280;39642;47.556;18.728;2023-06-19T08:58:35;99611.69;;;23.30;48.44
51249;BME280;39642;47.556;18.728;2023-06-19T09:01:02;99617.00;;;23.30;48.41
51249;BME280;39642;47.556;18.728;2023-06-19T09:03:28;99620.50;;;23.31;48.58
51249;BME280;39642;47.556;18.728;2023-06-19T09:05:54;99619.53;;;23.32;48.52
51249;BME280;39642;47.556;18.728;2023-06-19T09:08:21;99623.03;;;23.32;48.30
51249;BME280;39642;47.556;18.728;2023-06-19T09:11:03;99617.34;;;23.49;47.55
51249;BME280;39642;47.556;18.728;2023-06-19T09:13:31;99615.09;;;23.56;47.63
51249;BME280;39642;47.556;18.728;2023-06-19T09:15:59;99617.97;;;23.53;47.77
51249;BME280;39642;47.556;18.728;2023-06-19T09:18:26;99611.50;;;23.68;46.35
51249;BME280;39642;47.556;18.728;2023-06-19T09:20:53;99611.47;;;23.81;46.36
51249;BME280;39642;47.556;18.728;2023-06-19T09:23:20;99610.88;;;23.78;46.75
51249;BME280;39642;47.556;18.728;2023-06-19T09:25:52;99622.25;;;23.91;47.71
51249;BME280;39642;47.556;18.728;2023-06-19T09:28:22;99619.94;;;23.86;47.22
51249;BME280;39642;47.556;18.728;2023-06-19T09:30:53;99616.88;;;23.80;46.89
51249;BME280;39642;47.556;18.728;2023-06-19T09:33:19;99609.53;;;23.83;46.78
51249;BME280;39642;47.556;18.728;2023-06-19T09:35:45;99611.81;;;23.77;48.46
51249;BME280;39642;47.556;18.728;2023-06-19T09:38:12;99604.56;;;23.79;46.99
51249;BME280;39642;47.556;18.728;2023-06-19T09:40:45;99609.34;;;23.98;46.82
51249;BME280;39642;47.556;18.728;2023-06-19T09:43:15;99602.47;;;24.06;47.54
51249;BME280;39642;47.556;18.728;2023-06-19T09:45:47;99603.66;;;24.02;46.48
51249;BME280;39642;47.556;18.728;2023-06-19T09:48:19;99599.72;;;24.08;45.94
51249;BME280;39642;47.556;18.728;2023-06-19T09:50:48;99595.84;;;24.12;45.50
51249;BME280;39642;47.556;18.728;2023-06-19T09:53:19;99597.66;;;24.12;46.03
51249;BME280;39642;47.556;18.728;2023-06-19T09:55:49;99588.69;;;24.01;46.69
51249;BME280;39642;47.556;18.728;2023-06-19T09:58:20;99591.81;;;23.95;46.50
51249;BME280;39642;47.556;18.728;2023-06-19T10:00:47;99596.28;;;23.95;46.43
51249;BME280;39642;47.556;18.728;2023-06-19T10:03:15;99596.53;;;23.92;47.44
51249;BME280;39642;47.556;18.728;2023-06-19T10:05:43;99599.28;;;23.90;47.22
51249;BME280;39642;47.556;18.728;2023-06-19T10:08:10;99594.44;;;23.84;47.30
51249;BME280;39642;47.556;18.728;2023-06-19T10:10:46;99587.66;;;23.80;46.93
51249;BME280;39642;47.556;18.728;2023-06-19T10:13:14;99581.87;;;23.86;47.03
51249;BME280;39642;47.556;18.728;2023-06-19T10:15:42;99580.84;;;24.11;44.99
51249;BME280;39642;47.556;18.728;2023-06-19T10:18:17;99583.50;;;24.22;44.40
51249;BME280;39642;47.556;18.728;2023-06-19T10:20:45;99580.47;;;24.16;45.37
51249;BME280;39642;47.556;18.728;2023-06-19T10:23:13;99578.94;;;24.24;44.45
51249;BME280;39642;47.556;18.728;2023-06-19T10:25:45;99571.66;;;24.15;45.05
51249;BME280;39642;47.556;18.728;2023-06-19T10:28:19;99566.94;;;24.07;45.55
51249;BME280;39642;47.556;18.728;2023-06-19T10:30:53;99576.38;;;24.00;45.79
51249;BME280;39642;47.556;18.728;2023-06-19T10:33:30;99578.03;;;23.90;46.56
51249;BME280;39642;47.556;18.728;2023-06-19T10:35:59;99582.34;;;23.91;46.56
51249;BME280;39642;47.556;18.728;2023-06-19T10:38:28;99583.97;;;23.94;46.41
51249;BME280;39642;47.556;18.728;2023-06-19T10:40:55;99571.53;;;24.05;44.92
51249;BME280;39642;47.556;18.728;2023-06-19T10:43:23;99581.47;;;24.15;45.07
51249;BME280;39642;47.556;18.728;2023-06-19T10:45:53;99578.19;;;24.11;45.03
51249;BME280;39642;47.556;18.728;2023-06-19T10:48:24;99573.94;;;24.08;45.74
51249;BME280;39642;47.556;18.728;2023-06-19T10:50:50;99567.53;;;24.11;45.36
51249;BME280;39642;47.556;18.728;2023-06-19T10:53:26;99571.41;;;24.18;45.00
51249;BME280;39642;47.556;18.728;2023-06-19T10:55:57;99568.16;;;24.15;45.06
51249;BME280;39642;47.556;18.728;2023-06-19T10:58:25;99570.56;;;24.06;45.31
51249;BME280;39642;47.556;18.728;2023-06-19T11:00:51;99573.56;;;24.02;45.88
51249;BME280;39642;47.556;18.728;2023-06-19T11:03:17;99577.94;;;24.03;45.98
51249;BME280;39642;47.556;18.728;2023-06-19T11:05:44;99574.31;;;24.04;45.77
51249;BME280;39642;47.556;18.728;2023-06-19T11:08:10;99577.06;;;24.02;46.01
51249;BME280;39642;47.556;18.728;2023-06-19T11:10:36;99574.66;;;23.99;46.10
51249;BME280;39642;47.556;18.728;2023-06-19T11:13:02;99567.50;;;24.00;46.07
51249;BME280;39642;47.556;18.728;2023-06-19T11:15:32;99567.50;;;24.00;46.01
51249;BME280;39642;47.556;18.728;2023-06-19T11:18:00;99565.94;;;23.97;46.10
51249;BME280;39642;47.556;18.728;2023-06-19T11:20:27;99559.41;;;23.90;46.31
51249;BME280;39642;47.556;18.728;2023-06-19T11:23:00;99560.59;;;23.86;46.66
51249;BME280;39642;47.556;18.728;2023-06-19T11:25:39;99564.34;;;23.83;46.39
51249;BME280;39642;47.556;18.728;2023-06-19T11:28:10;99563.50;;;23.83;46.42
51249;BME280;39642;47.556;18.728;2023-06-19T11:30:36;99563.59;;;23.81;46.36
51249;BME280;39642;47.556;18.728;2023-06-19T11:33:03;99563.59;;;23.81;46.23
51249;BME280;39642;47.556;18.728;2023-06-19T11:35:34;99559.37;;;23.79;46.42
51249;BME280;39642;47.556;18.728;2023-06-19T11:38:05;99565.78;;;23.76;46.51
51249;BME280;39642;47.556;18.728;2023-06-19T11:40:39;99556.19;;;23.74;46.57
51249;BME280;39642;47.556;18.728;2023-06-19T11:43:05;99551.09;;;23.70;46.73
51249;BME280;39642;47.556;18.728;2023-06-19T11:45:31;99550.50;;;23.67;46.42
51249;BME280;39642;47.556;18.728;2023-06-19T11:47:57;99548.44;;;23.70;45.99
51249;BME280;39642;47.556;18.728;2023-06-19T11:50:27;99544.81;;;23.72;45.84
51249;BME280;39642;47.556;18.728;2023-06-19T11:52:53;99548.22;;;23.74;45.95
51249;BME280;39642;47.556;18.728;2023-06-19T11:55:19;99551.72;;;23.74;45.62
51249;BME280;39642;47.556;18.728;2023-06-19T11:57:45;99551.50;;;23.77;45.02
51249;BME280;39642;47.556;18.728;2023-06-19T12:00:16;99551.41;;;23.79;45.39
51249;BME280;39642;47.556;18.728;2023-06-19T12:02:44;99543.53;;;23.77;45.63
51249;BME280;39642;47.556;18.728;2023-06-19T12:05:10;99540.88;;;23.77;45.00
51249;BME280;39642;47.556;18.728;2023-06-19T12:07:37;99541.75;;;23.78;45.73
51249;BME280;39642;47.556;18.728;2023-06-19T12:10:03;99543.66;;;23.76;45.89
51249;BME280;39642;47.556;18.728;2023-06-19T12:12:30;99541.97;;;23.75;45.80
51249;BME280;39642;47.556;18.728;2023-06-19T12:14:56;99536.72;;;23.73;45.54
51249;BME280;39642;47.556;18.728;2023-06-19T12:17:22;99533.22;;;23.73;45.13
51249;BME280;39642;47.556;18.728;2023-06-19T12:19:48;99533.97;;;23.75;45.58
51249;BME280;39642;47.556;18.728;2023-06-19T12:22:15;99530.44;;;23.74;45.32
51249;BME280;39642;47.556;18.728;2023-06-19T12:24:40;99522.16;;;23.79;44.30
51249;BME280;39642;47.556;18.728;2023-06-19T12:27:07;99519.16;;;23.83;44.07
51249;BME280;39642;47.556;18.728;2023-06-19T12:29:32;99522.53;;;23.85;44.74
51249;BME280;39642;47.556;18.728;2023-06-19T12:32:01;99524.47;;;23.83;45.40
51249;BME280;39642;47.556;18.728;2023-06-19T12:34:30;99518.75;;;23.77;45.47
51249;BME280;39642;47.556;18.728;2023-06-19T12:36:56;99520.91;;;23.72;45.50
51249;BME280;39642;47.556;18.728;2023-06-19T12:39:25;99519.19;;;23.70;45.64
51249;BME280;39642;47.556;18.728;2023-06-19T12:41:52;99515.81;;;23.68;45.74
51249;BME280;39642;47.556;18.728;2023-06-19T12:44:18;99519.44;;;23.67;45.84
51249;BME280;39642;47.556;18.728;2023-06-19T12:46:44;99519.31;;;23.69;45.81
51249;BME280;39642;47.556;18.728;2023-06-19T12:49:10;99519.31;;;23.69;46.01